sensor_id;sensor_type;location;lat;lon;timestamp;P1;durP1;ratioP1;P2;durP2;ratioP2
31043;SDS011;17710;52.520;13.352;2023-07-31T00:01:28;5.97;;;1.88;;
31043;SDS011;17710;52.520;13.352;2023-07-31T00:03:55;2.47;;;0.98;;
31043;SDS011;17710;52.520;13.352;2023-07-31T00:06:21;4.50;;;1.33;;
31043;SDS011;17710;52.520;13.352;2023-07-31T00:08:48;6.80;;;1.10;;
31043;SDS011;17710;52.520;13.352;2023-07-31T00:11:14;5.72;;;1.20;;
31043;SDS011;17710;52.520;13.352;2023-07-31T00:13:41;4.72;;;1.30;;
31043;SDS011;17710;52.520;13.352;2023-07-31T00:16:07;2.67;;;1.02;;
31043;SDS011;17710;52.520;13.352;2023-07-31T00:18:35;2.17;;;1.20;;
31043;SDS011;17710;52.520;13.352;2023-07-31T00:21:02;6.03;;;1.33;;
31043;SDS011;17710;52.520;13.352;2023-07-31T00:23:28;3.08;;;1.15;;
31043;SDS011;17710;52.520;13.352;2023-07-31T00:25:55;5.20;;;1.27;;
31043;SDS011;17710;52.520;13.352;2023-07-31T00:28:21;5.07;;;1.35;;
31043;SDS011;17710;52.520;13.352;2023-07-31T00:30:48;5.53;;;1.42;;
31043;SDS011;17710;52.520;13.352;2023-07-31T00:33:14;5.18;;;1.25;;
31043;SDS011;17710;52.520;13.352;2023-07-31T00:35:42;5.68;;;1.95;;
31043;SDS011;17710;52.520;13.352;2023-07-31T00:38:08;4.97;;;1.17;;
31043;SDS011;17710;52.520;13.352;2023-07-31T00:40:35;4.43;;;1.30;;
31043;SDS011;17710;52.520;13.352;2023-07-31T00:43:02;5.60;;;1.30;;
31043;SDS011;17710;52.520;13.352;2023-07-31T00:45:29;4.22;;;1.25;;
31043;SDS011;17710;52.520;13.352;2023-07-31T00:47:56;5.57;;;1.20;;
31043;SDS011;17710;52.520;13.352;2023-07-31T00:50:23;6.72;;;1.33;;
31043;SDS011;17710;52.520;13.352;2023-07-31T00:52:52;3.47;;;1.13;;
31043;SDS011;17710;52.520;13.352;2023-07-31T00:55:18;4.63;;;1.20;;
31043;SDS011;17710;52.520;13.352;2023-07-31T00:57:47;5.10;;;1.40;;
31043;SDS011;17710;52.520;13.352;2023-07-31T01:00:14;5.03;;;1.33;;
31043;SDS011;17710;52.520;13.352;2023-07-31T01:02:40;5.28;;;1.40;;
31043;SDS011;17710;52.520;13.352;2023-07-31T01:05:07;6.30;;;1.48;;
31043;SDS011;17710;52.520;13.352;2023-07-31T01:07:35;2.83;;;1.10;;
31043;SDS011;17710;52.520;13.352;2023-07-31T01:10:11;3.22;;;1.20;;
31043;SDS011;17710;52.520;13.352;2023-07-31T01:12:43;3.47;;;1.30;;
31043;SDS011;17710;52.520;13.352;2023-07-31T01:15:11;3.90;;;1.40;;
31043;SDS011;17710;52.520;13.352;2023-07-31T01:17:40;4.00;;;1.35;;
31043;SDS011;17710;52.520;13.352;2023-07-31T01:20:10;3.63;;;1.70;;
31043;SDS011;17710;52.520;13.352;2023-07-31T01:22:41;2.30;;;1.25;;
31043;SDS011;17710;52.520;13.352;2023-07-31T01:25:24;2.45;;;1.38;;
31043;SDS011;17710;52.520;13.352;2023-07-31T01:28:07;2.65;;;1.48;;
31043;SDS011;17710;52.520;13.352;2023-07-31T01:30:40;3.75;;;1.42;;
31043;SDS011;17710;52.520;13.352;2023-07-31T01:33:09;4.55;;;1.60;;
31043;SDS011;17710;52.520;13.352;2023-07-31T01:35:37;2.85;;;1.30;;
31043;SDS011;17710;52.520;13.352;2023-07-31T01:38:03;4.82;;;1.45;;
31043;SDS011;17710;52.520;13.352;2023-07-31T01:40:31;4.18;;;1.50;;
31043;SDS011;17710;52.520;13.352;2023-07-31T01:42:57;2.97;;;1.50;;
31043;SDS011;17710;52.520;13.352;2023-07-31T01:45:25;5.55;;;1.52;;
31043;SDS011;17710;52.520;13.352;2023-07-31T01:47:51;5.43;;;1.92;;
31043;SDS011;17710;52.520;13.352;2023-07-31T01:50:18;3.40;;;1.58;;
31043;SDS011;17710;52.520;13.352;2023-07-31T01:52:44;6.25;;;1.80;;
31043;SDS011;17710;52.520;13.352;2023-07-31T01:55:11;4.47;;;1.60;;
31043;SDS011;17710;52.520;13.352;2023-07-31T01:57:37;5.18;;;1.40;;
31043;SDS011;17710;52.520;13.352;2023-07-31T02:00:04;4.05;;;1.40;;
31043;SDS011;17710;52.520;13.352;2023-07-31T02:02:32;4.30;;;1.58;;
31043;SDS011;17710;52.520;13.352;2023-07-31T02:04:59;6.07;;;1.70;;
31043;SDS011;17710;52.520;13.352;2023-07-31T02:07:25;4.60;;;1.60;;
31043;SDS011;17710;52.520;13.352;2023-07-31T02:09:51;5.93;;;1.77;;
31043;SDS011;17710;52.520;13.352;2023-07-31T02:12:18;6.22;;;2.05;;
31043;SDS011;17710;52.520;13.352;2023-07-31T02:14:45;4.30;;;1.65;;
31043;SDS011;17710;52.520;13.352;2023-07-31T02:17:11;2.83;;;1.70;;
31043;SDS011;17710;52.520;13.352;2023-07-31T02:19:39;5.25;;;1.50;;
31043;SDS011;17710;52.520;13.352;2023-07-31T02:22:05;6.95;;;1.73;;
31043;SDS011;17710;52.520;13.352;2023-07-31T02:24:32;5.85;;;1.83;;
31043;SDS011;17710;52.520;13.352;2023-07-31T02:26:58;6.30;;;2.17;;
31043;SDS011;17710;52.520;13.352;2023-07-31T02:29:25;4.72;;;1.58;;
31043;SDS011;17710;52.520;13.352;2023-07-31T02:31:51;3.22;;;2.03;;
31043;SDS011;17710;52.520;13.352;2023-07-31T02:34:17;3.47;;;1.50;;
31043;SDS011;17710;52.520;13.352;2023-07-31T02:36:45;6.47;;;2.25;;
31043;SDS011;17710;52.520;13.352;2023-07-31T02:39:11;2.97;;;1.50;;
31043;SDS011;17710;52.520;13.352;2023-07-31T02:41:38;8.23;;;1.90;;
31043;SDS011;17710;52.520;13.352;2023-07-31T02:44:04;4.80;;;1.50;;
31043;SDS011;17710;52.520;13.352;2023-07-31T02:46:30;7.00;;;1.80;;
31043;SDS011;17710;52.520;13.352;2023-07-31T02:48:57;2.80;;;1.80;;
31043;SDS011;17710;52.520;13.352;2023-07-31T02:51:23;2.67;;;1.70;;
31043;SDS011;17710;52.520;13.352;2023-07-31T02:53:51;3.85;;;1.85;;
31043;SDS011;17710;52.520;13.352;2023-07-31T02:56:17;4.57;;;1.83;;
31043;SDS011;17710;52.520;13.352;2023-07-31T02:58:44;6.85;;;2.13;;
31043;SDS011;17710;52.520;13.352;2023-07-31T03:01:10;3.35;;;1.75;;
31043;SDS011;17710;52.520;13.352;2023-07-31T03:03:36;9.50;;;2.08;;
31043;SDS011;17710;52.520;13.352;2023-07-31T03:06:03;4.78;;;2.20;;
31043;SDS011;17710;52.520;13.352;2023-07-31T03:08:29;4.97;;;1.95;;
31043;SDS011;17710;52.520;13.352;2023-07-31T03:10:57;6.28;;;2.40;;
31043;SDS011;17710;52.520;13.352;2023-07-31T03:13:24;6.90;;;2.70;;
31043;SDS011;17710;52.520;13.352;2023-07-31T03:15:50;7.55;;;2.03;;
31043;SDS011;17710;52.520;13.352;2023-07-31T03:18:17;4.20;;;2.40;;
31043;SDS011;17710;52.520;13.352;2023-07-31T03:20:43;4.82;;;2.20;;
31043;SDS011;17710;52.520;13.352;2023-07-31T03:23:09;7.45;;;2.38;;
31043;SDS011;17710;52.520;13.352;2023-07-31T03:25:36;5.75;;;2.47;;
31043;SDS011;17710;52.520;13.352;2023-07-31T03:28:04;3.67;;;2.38;;
31043;SDS011;17710;52.520;13.352;2023-07-31T03:30:30;6.78;;;3.15;;
31043;SDS011;17710;52.520;13.352;2023-07-31T03:32:57;4.80;;;2.65;;
31043;SDS011;17710;52.520;13.352;2023-07-31T03:35:23;6.38;;;2.50;;
31043;SDS011;17710;52.520;13.352;2023-07-31T03:37:49;9.10;;;2.70;;
31043;SDS011;17710;52.520;13.352;2023-07-31T03:40:16;4.57;;;2.20;;
31043;SDS011;17710;52.520;13.352;2023-07-31T03:42:42;6.68;;;2.88;;
31043;SDS011;17710;52.520;13.352;2023-07-31T03:45:10;7.50;;;2.33;;
31043;SDS011;17710;52.520;13.352;2023-07-31T03:47:36;4.40;;;2.40;;
31043;SDS011;17710;52.520;13.352;2023-07-31T03:50:03;7.32;;;2.60;;
31043;SDS011;17710;52.520;13.352;2023-07-31T03:52:30;6.75;;;2.53;;
31043;SDS011;17710;52.520;13.352;2023-07-31T03:54:56;4.13;;;2.53;;
31043;SDS011;17710;52.520;13.352;2023-07-31T03:57:22;7.70;;;2.58;;
31043;SDS011;17710;52.520;13.352;2023-07-31T03:59:49;8.45;;;3.40;;
31043;SDS011;17710;52.520;13.352;2023-07-31T04:02:17;7.78;;;2.70;;
31043;SDS011;17710;52.520;13.352;2023-07-31T04:04:43;7.35;;;3.03;;
31043;SDS011;17710;52.520;13.352;2023-07-31T04:07:10;6.80;;;3.03;;
31043;SDS011;17710;52.520;13.352;2023-07-31T04:09:36;6.43;;;3.20;;
31043;SDS011;17710;52.520;13.352;2023-07-31T04:12:03;8.45;;;3.10;;
31043;SDS011;17710;52.520;13.352;2023-07-31T04:14:29;3.05;;;2.33;;
31043;SDS011;17710;52.520;13.352;2023-07-31T04:16:56;6.97;;;2.20;;
31043;SDS011;17710;52.520;13.352;2023-07-31T04:19:24;4.38;;;2.53;;
31043;SDS011;17710;52.520;13.352;2023-07-31T04:21:50;4.50;;;2.53;;
31043;SDS011;17710;52.520;13.352;2023-07-31T04:24:17;5.90;;;2.45;;
31043;SDS011;17710;52.520;13.352;2023-07-31T04:26:49;7.53;;;2.55;;
31043;SDS011;17710;52.520;13.352;2023-07-31T04:29:15;4.85;;;2.33;;
31043;SDS011;17710;52.520;13.352;2023-07-31T04:31:42;3.28;;;2.20;;
31043;SDS011;17710;52.520;13.352;2023-07-31T04:34:08;7.93;;;2.58;;
31043;SDS011;17710;52.520;13.352;2023-07-31T04:36:36;6.55;;;2.25;;
31043;SDS011;17710;52.520;13.352;2023-07-31T04:39:02;6.28;;;2.60;;
31043;SDS011;17710;52.520;13.352;2023-07-31T04:41:29;6.15;;;2.22;;
31043;SDS011;17710;52.520;13.352;2023-07-31T04:43:55;5.25;;;2.42;;
31043;SDS011;17710;52.520;13.352;2023-07-31T04:46:22;6.57;;;2.90;;
31043;SDS011;17710;52.520;13.352;2023-07-31T04:48:48;5.40;;;2.58;;
31043;SDS011;17710;52.520;13.352;2023-07-31T04:51:14;7.88;;;2.67;;
31043;SDS011;17710;52.520;13.352;2023-07-31T04:53:42;4.93;;;2.40;;
31043;SDS011;17710;52.520;13.352;2023-07-31T04:56:09;5.95;;;2.25;;
31043;SDS011;17710;52.520;13.352;2023-07-31T04:58:35;6.63;;;2.92;;
31043;SDS011;17710;52.520;13.352;2023-07-31T05:01:01;6.68;;;2.33;;
31043;SDS011;17710;52.520;13.352;2023-07-31T05:03:28;6.40;;;2.20;;
31043;SDS011;17710;52.520;13.352;2023-07-31T05:05:54;5.47;;;2.35;;
31043;SDS011;17710;52.520;13.352;2023-07-31T05:08:21;6.47;;;2.45;;
31043;SDS011;17710;52.520;13.352;2023-07-31T05:10:49;4.90;;;2.03;;
31043;SDS011;17710;52.520;13.352;2023-07-31T05:13:15;6.05;;;2.55;;
31043;SDS011;17710;52.520;13.352;2023-07-31T05:15:42;3.47;;;2.10;;
31043;SDS011;17710;52.520;13.352;2023-07-31T05:18:08;4.68;;;3.40;;
31043;SDS011;17710;52.520;13.352;2023-07-31T05:20:35;7.20;;;2.80;;
31043;SDS011;17710;52.520;13.352;2023-07-31T05:23:01;6.15;;;2.83;;
31043;SDS011;17710;52.520;13.352;2023-07-31T05:25:28;9.05;;;2.78;;
31043;SDS011;17710;52.520;13.352;2023-07-31T05:27:56;7.30;;;2.50;;
31043;SDS011;17710;52.520;13.352;2023-07-31T05:30:22;4.57;;;2.50;;
31043;SDS011;17710;52.520;13.352;2023-07-31T05:32:49;5.13;;;2.42;;
31043;SDS011;17710;52.520;13.352;2023-07-31T05:35:15;12.85;;;4.20;;
31043;SDS011;17710;52.520;13.352;2023-07-31T05:37:42;8.25;;;3.60;;
31043;SDS011;17710;52.520;13.352;2023-07-31T05:40:08;5.55;;;2.50;;
31043;SDS011;17710;52.520;13.352;2023-07-31T05:42:35;9.73;;;2.83;;
31043;SDS011;17710;52.520;13.352;2023-07-31T05:45:05;6.65;;;2.20;;
31043;SDS011;17710;52.520;13.352;2023-07-31T05:47:32;5.78;;;2.30;;
31043;SDS011;17710;52.520;13.352;2023-07-31T05:49:59;6.82;;;2.33;;
31043;SDS011;17710;52.520;13.352;2023-07-31T05:52:25;5.85;;;2.22;;
31043;SDS011;17710;52.520;13.352;2023-07-31T05:54:53;5.47;;;2.17;;
31043;SDS011;17710;52.520;13.352;2023-07-31T05:57:20;5.63;;;2.28;;
31043;SDS011;17710;52.520;13.352;2023-07-31T05:59:46;9.90;;;2.53;;
31043;SDS011;17710;52.520;13.352;2023-07-31T06:02:14;6.83;;;2.20;;
31043;SDS011;17710;52.520;13.352;2023-07-31T06:04:41;5.15;;;2.13;;
31043;SDS011;17710;52.520;13.352;2023-07-31T06:07:07;5.30;;;1.77;;
31043;SDS011;17710;52.520;13.352;2023-07-31T06:09:34;7.70;;;2.28;;
31043;SDS011;17710;52.520;13.352;2023-07-31T06:12:00;5.00;;;2.10;;
31043;SDS011;17710;52.520;13.352;2023-07-31T06:14:27;10.07;;;2.88;;
31043;SDS011;17710;52.520;13.352;2023-07-31T06:16:53;10.00;;;2.10;;
31043;SDS011;17710;52.520;13.352;2023-07-31T06:19:21;7.28;;;2.10;;
31043;SDS011;17710;52.520;13.352;2023-07-31T06:21:47;9.07;;;2.45;;
31043;SDS011;17710;52.520;13.352;2023-07-31T06:24:14;9.27;;;2.50;;
31043;SDS011;17710;52.520;13.352;2023-07-31T06:26:44;6.13;;;2.05;;
31043;SDS011;17710;52.520;13.352;2023-07-31T06:29:10;8.70;;;2.58;;
31043;SDS011;17710;52.520;13.352;2023-07-31T06:31:37;3.95;;;2.20;;
31043;SDS011;17710;52.520;13.352;2023-07-31T06:34:03;4.78;;;2.10;;
31043;SDS011;17710;52.520;13.352;2023-07-31T06:36:31;6.25;;;2.22;;
31043;SDS011;17710;52.520;13.352;2023-07-31T06:38:58;3.67;;;2.10;;
31043;SDS011;17710;52.520;13.352;2023-07-31T06:41:24;5.70;;;2.20;;
31043;SDS011;17710;52.520;13.352;2023-07-31T06:43:51;6.07;;;2.15;;
31043;SDS011;17710;52.520;13.352;2023-07-31T06:46:17;5.55;;;2.38;;
31043;SDS011;17710;52.520;13.352;2023-07-31T06:48:44;5.50;;;1.83;;
31043;SDS011;17710;52.520;13.352;2023-07-31T06:51:10;7.22;;;2.15;;
31043;SDS011;17710;52.520;13.352;2023-07-31T06:53:38;6.43;;;2.30;;
31043;SDS011;17710;52.520;13.352;2023-07-31T06:56:04;5.20;;;2.03;;
31043;SDS011;17710;52.520;13.352;2023-07-31T06:58:30;2.83;;;1.60;;
31043;SDS011;17710;52.520;13.352;2023-07-31T07:00:57;7.88;;;2.03;;
31043;SDS011;17710;52.520;13.352;2023-07-31T07:03:23;2.47;;;1.60;;
31043;SDS011;17710;52.520;13.352;2023-07-31T07:05:50;3.20;;;2.17;;
31043;SDS011;17710;52.520;13.352;2023-07-31T07:08:17;5.35;;;2.20;;
31043;SDS011;17710;52.520;13.352;2023-07-31T07:10:44;4.60;;;1.90;;
31043;SDS011;17710;52.520;13.352;2023-07-31T07:13:11;5.93;;;2.05;;
31043;SDS011;17710;52.520;13.352;2023-07-31T07:15:38;6.60;;;2.10;;
31043;SDS011;17710;52.520;13.352;2023-07-31T07:18:05;6.88;;;2.03;;
31043;SDS011;17710;52.520;13.352;2023-07-31T07:20:32;7.50;;;1.95;;
31043;SDS011;17710;52.520;13.352;2023-07-31T07:22:58;5.40;;;2.10;;
31043;SDS011;17710;52.520;13.352;2023-07-31T07:25:25;7.43;;;2.00;;
31043;SDS011;17710;52.520;13.352;2023-07-31T07:27:53;5.40;;;2.00;;
31043;SDS011;17710;52.520;13.352;2023-07-31T07:30:19;6.10;;;2.38;;
31043;SDS011;17710;52.520;13.352;2023-07-31T07:32:46;10.20;;;2.78;;
31043;SDS011;17710;52.520;13.352;2023-07-31T07:35:12;6.25;;;2.25;;
31043;SDS011;17710;52.520;13.352;2023-07-31T07:37:39;3.60;;;1.80;;
31043;SDS011;17710;52.520;13.352;2023-07-31T07:40:06;5.43;;;1.90;;
31043;SDS011;17710;52.520;13.352;2023-07-31T07:42:33;7.00;;;2.20;;
31043;SDS011;17710;52.520;13.352;2023-07-31T07:45:01;4.93;;;2.17;;
31043;SDS011;17710;52.520;13.352;2023-07-31T07:47:28;4.30;;;1.88;;
31043;SDS011;17710;52.520;13.352;2023-07-31T07:49:54;4.13;;;1.70;;
31043;SDS011;17710;52.520;13.352;2023-07-31T07:52:20;6.72;;;1.90;;
31043;SDS011;17710;52.520;13.352;2023-07-31T07:54:47;4.93;;;1.85;;
31043;SDS011;17710;52.520;13.352;2023-07-31T07:57:13;7.45;;;2.30;;
31043;SDS011;17710;52.520;13.352;2023-07-31T07:59:40;5.40;;;1.80;;
31043;SDS011;17710;52.520;13.352;2023-07-31T08:02:08;7.38;;;2.10;;
31043;SDS011;17710;52.520;13.352;2023-07-31T08:04:34;4.80;;;1.58;;
31043;SDS011;17710;52.520;13.352;2023-07-31T08:07:01;7.35;;;1.55;;
31043;SDS011;17710;52.520;13.352;2023-07-31T08:09:27;2.58;;;1.60;;
31043;SDS011;17710;52.520;13.352;2023-07-31T08:11:54;6.05;;;1.98;;
31043;SDS011;17710;52.520;13.352;2023-07-31T08:14:22;2.72;;;1.40;;
31043;SDS011;17710;52.520;13.352;2023-07-31T08:16:49;7.80;;;2.08;;
31043;SDS011;17710;52.520;13.352;2023-07-31T08:19:17;3.90;;;1.75;;
31043;SDS011;17710;52.520;13.352;2023-07-31T08:21:43;2.28;;;1.45;;
31043;SDS011;17710;52.520;13.352;2023-07-31T08:24:09;3.30;;;1.40;;
31043;SDS011;17710;52.520;13.352;2023-07-31T08:26:36;1.95;;;1.48;;
31043;SDS011;17710;52.520;13.352;2023-07-31T08:29:02;3.15;;;1.50;;
31043;SDS011;17710;52.520;13.352;2023-07-31T08:31:29;3.42;;;1.48;;
31043;SDS011;17710;52.520;13.352;2023-07-31T08:33:56;3.17;;;1.20;;
31043;SDS011;17710;52.520;13.352;2023-07-31T08:36:23;2.17;;;1.20;;
31043;SDS011;17710;52.520;13.352;2023-07-31T08:38:50;3.67;;;1.70;;
31043;SDS011;17710;52.520;13.352;2023-07-31T08:41:17;3.47;;;1.55;;
31043;SDS011;17710;52.520;13.352;2023-07-31T08:43:43;4.28;;;1.70;;
31043;SDS011;17710;52.520;13.352;2023-07-31T08:46:11;3.22;;;1.40;;
31043;SDS011;17710;52.520;13.352;2023-07-31T08:48:39;4.13;;;1.38;;
31043;SDS011;17710;52.520;13.352;2023-07-31T08:51:07;3.17;;;1.50;;
31043;SDS011;17710;52.520;13.352;2023-07-31T08:53:35;2.38;;;1.50;;
31043;SDS011;17710;52.520;13.352;2023-07-31T08:56:02;2.38;;;1.20;;
31043;SDS011;17710;52.520;13.352;2023-07-31T08:58:30;3.47;;;1.63;;
31043;SDS011;17710;52.520;13.352;2023-07-31T09:00:58;5.03;;;1.42;;
31043;SDS011;17710;52.520;13.352;2023-07-31T09:03:27;1.80;;;1.42;;
31043;SDS011;17710;52.520;13.352;2023-07-31T09:05:56;7.75;;;1.52;;
31043;SDS011;17710;52.520;13.352;2023-07-31T09:08:24;3.60;;;1.45;;
31043;SDS011;17710;52.520;13.352;2023-07-31T09:10:58;2.45;;;1.38;;
31043;SDS011;17710;52.520;13.352;2023-07-31T09:13:25;3.97;;;1.27;;
31043;SDS011;17710;52.520;13.352;2023-07-31T09:15:53;1.65;;;1.05;;
31043;SDS011;17710;52.520;13.352;2023-07-31T09:18:19;2.05;;;1.40;;
31043;SDS011;17710;52.520;13.352;2023-07-31T09:20:52;2.50;;;1.30;;
31043;SDS011;17710;52.520;13.352;2023-07-31T09:23:27;3.28;;;1.25;;
31043;SDS011;17710;52.520;13.352;2023-07-31T09:26:07;2.33;;;1.10;;
31043;SDS011;17710;52.520;13.352;2023-07-31T09:28:34;1.15;;;0.80;;
31043;SDS011;17710;52.520;13.352;2023-07-31T09:31:00;1.90;;;1.67;;
31043;SDS011;17710;52.520;13.352;2023-07-31T09:33:27;1.50;;;1.08;;
31043;SDS011;17710;52.520;13.352;2023-07-31T09:35:53;2.90;;;1.00;;
31043;SDS011;17710;52.520;13.352;2023-07-31T09:38:19;1.95;;;0.75;;
31043;SDS011;17710;52.520;13.352;2023-07-31T09:40:46;1.23;;;0.70;;
31043;SDS011;17710;52.520;13.352;2023-07-31T09:43:18;3.80;;;0.90;;
31043;SDS011;17710;52.520;13.352;2023-07-31T09:45:45;3.03;;;1.02;;
31043;SDS011;17710;52.520;13.352;2023-07-31T09:48:13;0.70;;;0.70;;
31043;SDS011;17710;52.520;13.352;2023-07-31T09:50:41;1.38;;;0.73;;
31043;SDS011;17710;52.520;13.352;2023-07-31T09:53:08;2.22;;;1.05;;
31043;SDS011;17710;52.520;13.352;2023-07-31T09:55:36;1.20;;;0.70;;
31043;SDS011;17710;52.520;13.352;2023-07-31T09:58:03;0.90;;;0.73;;
31043;SDS011;17710;52.520;13.352;2023-07-31T10:00:32;2.42;;;0.80;;
31043;SDS011;17710;52.520;13.352;2023-07-31T10:03:00;3.47;;;1.33;;
31043;SDS011;17710;52.520;13.352;2023-07-31T10:05:29;2.72;;;0.90;;
31043;SDS011;17710;52.520;13.352;2023-07-31T10:07:58;1.30;;;1.20;;
31043;SDS011;17710;52.520;13.352;2023-07-31T10:10:25;3.35;;;1.20;;
31043;SDS011;17710;52.520;13.352;2023-07-31T10:12:53;0.98;;;0.93;;
31043;SDS011;17710;52.520;13.352;2023-07-31T10:15:21;4.38;;;1.45;;
31043;SDS011;17710;52.520;13.352;2023-07-31T10:17:50;5.22;;;1.70;;
31043;SDS011;17710;52.520;13.352;2023-07-31T10:20:17;3.63;;;1.70;;
31043;SDS011;17710;52.520;13.352;2023-07-31T10:22:44;3.63;;;2.13;;
31043;SDS011;17710;52.520;13.352;2023-07-31T10:25:12;6.18;;;1.88;;
31043;SDS011;17710;52.520;13.352;2023-07-31T10:27:38;4.57;;;2.00;;
31043;SDS011;17710;52.520;13.352;2023-07-31T10:30:07;5.75;;;2.20;;
31043;SDS011;17710;52.520;13.352;2023-07-31T10:32:37;4.38;;;2.10;;
31043;SDS011;17710;52.520;13.352;2023-07-31T10:35:08;3.40;;;2.20;;
31043;SDS011;17710;52.520;13.352;2023-07-31T10:37:36;5.43;;;2.30;;
31043;SDS011;17710;52.520;13.352;2023-07-31T10:40:04;4.40;;;2.42;;
31043;SDS011;17710;52.520;13.352;2023-07-31T10:42:33;3.80;;;2.22;;
31043;SDS011;17710;52.520;13.352;2023-07-31T10:45:01;4.32;;;2.35;;
31043;SDS011;17710;52.520;13.352;2023-07-31T10:47:29;5.50;;;2.40;;
31043;SDS011;17710;52.520;13.352;2023-07-31T10:50:13;5.28;;;2.60;;
31043;SDS011;17710;52.520;13.352;2023-07-31T10:52:44;5.55;;;2.13;;
31043;SDS011;17710;52.520;13.352;2023-07-31T10:55:13;6.25;;;2.60;;
31043;SDS011;17710;52.520;13.352;2023-07-31T10:57:57;5.53;;;2.70;;
31043;SDS011;17710;52.520;13.352;2023-07-31T11:00:25;5.53;;;2.70;;
31043;SDS011;17710;52.520;13.352;2023-07-31T11:02:56;6.47;;;2.35;;
31043;SDS011;17710;52.520;13.352;2023-07-31T11:08:11;5.93;;;2.38;;
31043;SDS011;17710;52.520;13.352;2023-07-31T11:10:39;5.18;;;2.65;;
31043;SDS011;17710;52.520;13.352;2023-07-31T11:13:05;4.65;;;2.65;;
31043;SDS011;17710;52.520;13.352;2023-07-31T11:15:32;5.90;;;2.72;;
31043;SDS011;17710;52.520;13.352;2023-07-31T11:17:59;10.27;;;2.60;;
31043;SDS011;17710;52.520;13.352;2023-07-31T11:20:29;5.75;;;2.95;;
31043;SDS011;17710;52.520;13.352;2023-07-31T11:22:58;4.28;;;2.80;;
31043;SDS011;17710;52.520;13.352;2023-07-31T11:25:28;5.88;;;3.00;;
31043;SDS011;17710;52.520;13.352;2023-07-31T11:27:55;7.63;;;2.90;;
31043;SDS011;17710;52.520;13.352;2023-07-31T11:30:22;4.68;;;2.65;;
31043;SDS011;17710;52.520;13.352;2023-07-31T11:32:48;5.18;;;2.40;;
31043;SDS011;17710;52.520;13.352;2023-07-31T11:35:15;5.55;;;2.78;;
31043;SDS011;17710;52.520;13.352;2023-07-31T11:37:42;8.20;;;2.58;;
31043;SDS011;17710;52.520;13.352;2023-07-31T11:40:11;10.35;;;3.08;;
31043;SDS011;17710;52.520;13.352;2023-07-31T11:42:38;6.28;;;2.72;;
31043;SDS011;17710;52.520;13.352;2023-07-31T11:45:04;5.22;;;2.55;;
31043;SDS011;17710;52.520;13.352;2023-07-31T11:47:32;6.60;;;2.50;;
31043;SDS011;17710;52.520;13.352;2023-07-31T11:50:00;7.05;;;2.88;;
31043;SDS011;17710;52.520;13.352;2023-07-31T11:52:27;5.57;;;2.42;;
31043;SDS011;17710;52.520;13.352;2023-07-31T11:54:54;4.88;;;2.22;;
31043;SDS011;17710;52.520;13.352;2023-07-31T11:57:22;5.53;;;2.30;;
31043;SDS011;17710;52.520;13.352;2023-07-31T11:59:49;7.38;;;3.03;;
31043;SDS011;17710;52.520;13.352;2023-07-31T12:02:16;6.03;;;2.67;;
31043;SDS011;17710;52.520;13.352;2023-07-31T12:04:44;5.63;;;2.60;;
31043;SDS011;17710;52.520;13.352;2023-07-31T12:07:12;7.15;;;2.33;;
31043;SDS011;17710;52.520;13.352;2023-07-31T12:09:38;5.05;;;2.47;;
31043;SDS011;17710;52.520;13.352;2023-07-31T12:12:19;4.88;;;3.13;;
31043;SDS011;17710;52.520;13.352;2023-07-31T12:14:47;4.93;;;2.30;;
31043;SDS011;17710;52.520;13.352;2023-07-31T12:17:14;6.50;;;2.60;;
31043;SDS011;17710;52.520;13.352;2023-07-31T12:19:40;6.10;;;2.40;;
31043;SDS011;17710;52.520;13.352;2023-07-31T12:22:11;4.90;;;2.65;;
31043;SDS011;17710;52.520;13.352;2023-07-31T12:24:38;9.60;;;2.40;;
31043;SDS011;17710;52.520;13.352;2023-07-31T12:27:08;5.47;;;2.30;;
31043;SDS011;17710;52.520;13.352;2023-07-31T12:29:35;5.18;;;2.50;;
31043;SDS011;17710;52.520;13.352;2023-07-31T12:32:03;3.90;;;2.03;;
31043;SDS011;17710;52.520;13.352;2023-07-31T12:34:30;5.05;;;2.30;;
31043;SDS011;17710;52.520;13.352;2023-07-31T12:36:57;5.68;;;2.40;;
31043;SDS011;17710;52.520;13.352;2023-07-31T12:39:24;7.00;;;2.72;;
31043;SDS011;17710;52.520;13.352;2023-07-31T12:41:51;3.85;;;2.15;;
31043;SDS011;17710;52.520;13.352;2023-07-31T12:44:17;4.88;;;2.22;;
31043;SDS011;17710;52.520;13.352;2023-07-31T12:46:44;3.03;;;2.10;;
31043;SDS011;17710;52.520;13.352;2023-07-31T12:49:12;4.57;;;2.20;;
31043;SDS011;17710;52.520;13.352;2023-07-31T12:51:38;4.32;;;2.03;;
31043;SDS011;17710;52.520;13.352;2023-07-31T12:54:04;6.60;;;2.72;;
31043;SDS011;17710;52.520;13.352;2023-07-31T12:56:31;9.20;;;2.50;;
31043;SDS011;17710;52.520;13.352;2023-07-31T12:58:57;3.88;;;1.90;;
31043;SDS011;17710;52.520;13.352;2023-07-31T13:01:24;5.80;;;2.53;;
31043;SDS011;17710;52.520;13.352;2023-07-31T13:03:50;5.40;;;1.75;;
31043;SDS011;17710;52.520;13.352;2023-07-31T13:06:17;8.23;;;2.25;;
31043;SDS011;17710;52.520;13.352;2023-07-31T13:08:44;2.40;;;1.58;;
31043;SDS011;17710;52.520;13.352;2023-07-31T13:11:10;4.18;;;1.50;;
31043;SDS011;17710;52.520;13.352;2023-07-31T13:13:37;3.97;;;1.40;;
31043;SDS011;17710;52.520;13.352;2023-07-31T13:16:03;1.95;;;1.40;;
31043;SDS011;17710;52.520;13.352;2023-07-31T13:18:30;3.65;;;1.50;;
31043;SDS011;17710;52.520;13.352;2023-07-31T13:20:56;4.22;;;1.40;;
31043;SDS011;17710;52.520;13.352;2023-07-31T13:23:24;3.58;;;1.70;;
31043;SDS011;17710;52.520;13.352;2023-07-31T13:25:51;3.42;;;1.70;;
31043;SDS011;17710;52.520;13.352;2023-07-31T13:28:17;2.58;;;1.50;;
31043;SDS011;17710;52.520;13.352;2023-07-31T13:30:43;6.25;;;2.13;;
31043;SDS011;17710;52.520;13.352;2023-07-31T13:33:11;4.72;;;2.05;;
31043;SDS011;17710;52.520;13.352;2023-07-31T13:35:40;4.13;;;1.58;;
31043;SDS011;17710;52.520;13.352;2023-07-31T13:38:07;4.05;;;2.13;;
31043;SDS011;17710;52.520;13.352;2023-07-31T13:40:35;3.63;;;1.85;;
31043;SDS011;17710;52.520;13.352;2023-07-31T13:43:02;9.68;;;2.40;;
31043;SDS011;17710;52.520;13.352;2023-07-31T13:45:28;3.95;;;2.10;;
31043;SDS011;17710;52.520;13.352;2023-07-31T13:47:54;5.00;;;2.53;;
31043;SDS011;17710;52.520;13.352;2023-07-31T13:50:21;3.75;;;2.03;;
31043;SDS011;17710;52.520;13.352;2023-07-31T13:52:47;6.57;;;2.30;;
31043;SDS011;17710;52.520;13.352;2023-07-31T13:55:14;3.90;;;1.98;;
31043;SDS011;17710;52.520;13.352;2023-07-31T13:57:42;2.58;;;1.80;;
31043;SDS011;17710;52.520;13.352;2023-07-31T14:00:09;4.80;;;2.28;;
31043;SDS011;17710;52.520;13.352;2023-07-31T14:02:36;4.78;;;2.67;;
31043;SDS011;17710;52.520;13.352;2023-07-31T14:05:03;5.18;;;2.35;;
31043;SDS011;17710;52.520;13.352;2023-07-31T14:07:30;4.18;;;2.47;;
31043;SDS011;17710;52.520;13.352;2023-07-31T14:09:58;5.13;;;2.38;;
31043;SDS011;17710;52.520;13.352;2023-07-31T14:12:24;4.35;;;2.30;;
31043;SDS011;17710;52.520;13.352;2023-07-31T14:14:52;5.53;;;2.72;;
31043;SDS011;17710;52.520;13.352;2023-07-31T14:17:18;4.10;;;2.00;;
31043;SDS011;17710;52.520;13.352;2023-07-31T14:19:45;3.30;;;2.28;;
31043;SDS011;17710;52.520;13.352;2023-07-31T14:22:11;6.15;;;2.30;;
31043;SDS011;17710;52.520;13.352;2023-07-31T14:24:37;4.95;;;2.45;;
31043;SDS011;17710;52.520;13.352;2023-07-31T14:27:04;6.28;;;2.40;;
31043;SDS011;17710;52.520;13.352;2023-07-31T14:29:31;3.83;;;2.10;;
31043;SDS011;17710;52.520;13.352;2023-07-31T14:31:59;4.60;;;2.42;;
31043;SDS011;17710;52.520;13.352;2023-07-31T14:34:26;6.35;;;2.88;;
31043;SDS011;17710;52.520;13.352;2023-07-31T14:36:52;8.48;;;2.38;;